<?xml version="1.0" encoding="UTF-8" standalone="no" ?>
<gpx xmlns="http://www.topografix.com/GPX/1/1" xmlns:xsi="http://www.w3.org/2001/XMLSchema-instance" xsi:schemaLocation="http://www.topografix.com/GPX/1/1 http://www.topografix.com/GPX/1/1/gpx.xsd" version="1.1" creator="VisuGPX - https://www.visugpx.com">
  <metadata>
    <name>Balade découverte - art</name>
    <desc><![CDATA[Petit aller retour spécial galerie !]]></desc>
  </metadata>
  <trk>
    <name><![CDATA[SityTrail - Art]]></name>
    <desc><![CDATA[Petit aller retour spécial galerie !]]></desc>
    <trkseg>
      <trkpt lat="50.51651" lon="1.57928">
        <ele>13</ele>
        <time>2021-08-13T07:38:44.980Z</time>
      </trkpt>
      <trkpt lat="50.51651" lon="1.57932">
        <ele>15</ele>
        <time>2021-08-13T07:38:45.221Z</time>
      </trkpt>
      <trkpt lat="50.51653" lon="1.57928">
        <ele>11</ele>
        <time>2021-08-13T07:38:49.221Z</time>
      </trkpt>
      <trkpt lat="50.51658" lon="1.57927">
        <ele>11</ele>
        <time>2021-08-13T07:38:54.224Z</time>
      </trkpt>
      <trkpt lat="50.51663" lon="1.57926">
        <ele>11</ele>
        <time>2021-08-13T07:38:59.226Z</time>
      </trkpt>
      <trkpt lat="50.51669" lon="1.57927">
        <ele>11</ele>
        <time>2021-08-13T07:39:04.225Z</time>
      </trkpt>
      <trkpt lat="50.51676" lon="1.57929">
        <ele>11</ele>
        <time>2021-08-13T07:39:09.227Z</time>
      </trkpt>
      <trkpt lat="50.51681" lon="1.57931">
        <ele>13</ele>
        <time>2021-08-13T07:39:13.232Z</time>
      </trkpt>
      <trkpt lat="50.51686" lon="1.57934">
        <ele>13</ele>
        <time>2021-08-13T07:39:18.224Z</time>
      </trkpt>
      <trkpt lat="50.51691" lon="1.57934">
        <ele>13</ele>
        <time>2021-08-13T07:39:22.230Z</time>
      </trkpt>
      <trkpt lat="50.51695" lon="1.57938">
        <ele>13</ele>
        <time>2021-08-13T07:39:27.223Z</time>
      </trkpt>
      <trkpt lat="50.517" lon="1.57941">
        <ele>13</ele>
        <time>2021-08-13T07:39:31.223Z</time>
      </trkpt>
      <trkpt lat="50.51707" lon="1.57941">
        <ele>13</ele>
        <time>2021-08-13T07:39:36.225Z</time>
      </trkpt>
      <trkpt lat="50.51712" lon="1.57945">
        <ele>13</ele>
        <time>2021-08-13T07:39:41.227Z</time>
      </trkpt>
      <trkpt lat="50.51716" lon="1.57952">
        <ele>13</ele>
        <time>2021-08-13T07:39:46.229Z</time>
      </trkpt>
      <trkpt lat="50.51724" lon="1.57953">
        <ele>13</ele>
        <time>2021-08-13T07:39:51.231Z</time>
      </trkpt>
      <trkpt lat="50.5173" lon="1.57948">
        <ele>13</ele>
        <time>2021-08-13T07:39:56.222Z</time>
      </trkpt>
      <trkpt lat="50.51738" lon="1.5795">
        <ele>12</ele>
        <time>2021-08-13T07:40:01.217Z</time>
      </trkpt>
      <trkpt lat="50.51745" lon="1.57955">
        <ele>12</ele>
        <time>2021-08-13T07:40:06.228Z</time>
      </trkpt>
      <trkpt lat="50.51751" lon="1.57957">
        <ele>12</ele>
        <time>2021-08-13T07:40:11.225Z</time>
      </trkpt>
      <trkpt lat="50.51756" lon="1.57959">
        <ele>14</ele>
        <time>2021-08-13T07:40:16.224Z</time>
      </trkpt>
      <trkpt lat="50.51759" lon="1.57962">
        <ele>14</ele>
        <time>2021-08-13T07:40:20.227Z</time>
      </trkpt>
      <trkpt lat="50.51765" lon="1.57965">
        <ele>15</ele>
        <time>2021-08-13T07:40:25.224Z</time>
      </trkpt>
      <trkpt lat="50.5177" lon="1.57968">
        <ele>15</ele>
        <time>2021-08-13T07:40:29.224Z</time>
      </trkpt>
      <trkpt lat="50.51774" lon="1.57973">
        <ele>15</ele>
        <time>2021-08-13T07:40:34.224Z</time>
      </trkpt>
      <trkpt lat="50.51779" lon="1.57976">
        <ele>15</ele>
        <time>2021-08-13T07:40:38.224Z</time>
      </trkpt>
      <trkpt lat="50.51784" lon="1.57981">
        <ele>15</ele>
        <time>2021-08-13T07:40:43.220Z</time>
      </trkpt>
      <trkpt lat="50.5179" lon="1.57985">
        <ele>15</ele>
        <time>2021-08-13T07:40:48.224Z</time>
      </trkpt>
      <trkpt lat="50.51794" lon="1.57991">
        <ele>17</ele>
        <time>2021-08-13T07:40:53.226Z</time>
      </trkpt>
      <trkpt lat="50.51802" lon="1.5799">
        <ele>17</ele>
        <time>2021-08-13T07:40:58.227Z</time>
      </trkpt>
      <trkpt lat="50.51808" lon="1.57988">
        <ele>17</ele>
        <time>2021-08-13T07:41:02.234Z</time>
      </trkpt>
      <trkpt lat="50.51814" lon="1.57987">
        <ele>17</ele>
        <time>2021-08-13T07:41:06.223Z</time>
      </trkpt>
      <trkpt lat="50.51821" lon="1.57988">
        <ele>19</ele>
        <time>2021-08-13T07:41:11.222Z</time>
      </trkpt>
      <trkpt lat="50.51827" lon="1.57991">
        <ele>19</ele>
        <time>2021-08-13T07:41:16.226Z</time>
      </trkpt>
      <trkpt lat="50.51833" lon="1.57994">
        <ele>19</ele>
        <time>2021-08-13T07:41:21.224Z</time>
      </trkpt>
      <trkpt lat="50.51839" lon="1.57995">
        <ele>19</ele>
        <time>2021-08-13T07:41:26.229Z</time>
      </trkpt>
      <trkpt lat="50.51847" lon="1.57994">
        <ele>19</ele>
        <time>2021-08-13T07:41:31.223Z</time>
      </trkpt>
      <trkpt lat="50.51852" lon="1.57993">
        <ele>19</ele>
        <time>2021-08-13T07:41:35.224Z</time>
      </trkpt>
      <trkpt lat="50.51858" lon="1.57992">
        <ele>19</ele>
        <time>2021-08-13T07:41:40.225Z</time>
      </trkpt>
      <trkpt lat="50.51865" lon="1.57992">
        <ele>19</ele>
        <time>2021-08-13T07:41:45.228Z</time>
      </trkpt>
      <trkpt lat="50.51871" lon="1.57991">
        <ele>19</ele>
        <time>2021-08-13T07:41:50.222Z</time>
      </trkpt>
      <trkpt lat="50.51876" lon="1.57989">
        <ele>18</ele>
        <time>2021-08-13T07:41:54.224Z</time>
      </trkpt>
      <trkpt lat="50.51881" lon="1.57989">
        <ele>18</ele>
        <time>2021-08-13T07:41:59.228Z</time>
      </trkpt>
      <trkpt lat="50.51887" lon="1.57989">
        <ele>18</ele>
        <time>2021-08-13T07:42:04.227Z</time>
      </trkpt>
      <trkpt lat="50.51893" lon="1.5799">
        <ele>18</ele>
        <time>2021-08-13T07:42:09.226Z</time>
      </trkpt>
      <trkpt lat="50.51899" lon="1.5799">
        <ele>18</ele>
        <time>2021-08-13T07:42:14.232Z</time>
      </trkpt>
      <trkpt lat="50.51904" lon="1.57992">
        <ele>20</ele>
        <time>2021-08-13T07:42:19.229Z</time>
      </trkpt>
      <trkpt lat="50.5191" lon="1.57993">
        <ele>20</ele>
        <time>2021-08-13T07:42:24.225Z</time>
      </trkpt>
      <trkpt lat="50.51915" lon="1.57995">
        <ele>20</ele>
        <time>2021-08-13T07:42:28.229Z</time>
      </trkpt>
      <trkpt lat="50.51914" lon="1.57993">
        <ele>20</ele>
        <time>2021-08-13T07:42:33.218Z</time>
      </trkpt>
      <trkpt lat="50.51912" lon="1.57994">
        <ele>20</ele>
        <time>2021-08-13T07:42:38.216Z</time>
      </trkpt>
      <trkpt lat="50.51916" lon="1.57994">
        <ele>20</ele>
        <time>2021-08-13T07:42:42.217Z</time>
      </trkpt>
      <trkpt lat="50.51923" lon="1.57995">
        <ele>20</ele>
        <time>2021-08-13T07:42:47.218Z</time>
      </trkpt>
      <trkpt lat="50.51929" lon="1.57998">
        <ele>20</ele>
        <time>2021-08-13T07:42:52.219Z</time>
      </trkpt>
      <trkpt lat="50.51933" lon="1.58001">
        <ele>21</ele>
        <time>2021-08-13T07:42:56.216Z</time>
      </trkpt>
      <trkpt lat="50.51939" lon="1.58003">
        <ele>21</ele>
        <time>2021-08-13T07:43:01.218Z</time>
      </trkpt>
      <trkpt lat="50.51943" lon="1.58002">
        <ele>21</ele>
        <time>2021-08-13T07:43:05.217Z</time>
      </trkpt>
      <trkpt lat="50.51949" lon="1.58006">
        <ele>21</ele>
        <time>2021-08-13T07:43:10.216Z</time>
      </trkpt>
      <trkpt lat="50.51955" lon="1.58006">
        <ele>21</ele>
        <time>2021-08-13T07:43:15.217Z</time>
      </trkpt>
      <trkpt lat="50.51961" lon="1.58006">
        <ele>16</ele>
        <time>2021-08-13T07:43:20.216Z</time>
      </trkpt>
      <trkpt lat="50.51965" lon="1.58007">
        <ele>16</ele>
        <time>2021-08-13T07:43:24.217Z</time>
      </trkpt>
      <trkpt lat="50.5197" lon="1.58007">
        <ele>16</ele>
        <time>2021-08-13T07:43:29.220Z</time>
      </trkpt>
      <trkpt lat="50.51976" lon="1.58007">
        <ele>16</ele>
        <time>2021-08-13T07:43:34.221Z</time>
      </trkpt>
      <trkpt lat="50.51983" lon="1.58009">
        <ele>16</ele>
        <time>2021-08-13T07:43:39.219Z</time>
      </trkpt>
      <trkpt lat="50.51988" lon="1.5801">
        <ele>15</ele>
        <time>2021-08-13T07:43:43.222Z</time>
      </trkpt>
      <trkpt lat="50.51994" lon="1.58013">
        <ele>15</ele>
        <time>2021-08-13T07:43:48.220Z</time>
      </trkpt>
      <trkpt lat="50.51999" lon="1.58014">
        <ele>16</ele>
        <time>2021-08-13T07:43:52.226Z</time>
      </trkpt>
      <trkpt lat="50.52005" lon="1.58016">
        <ele>16</ele>
        <time>2021-08-13T07:43:57.218Z</time>
      </trkpt>
      <trkpt lat="50.52009" lon="1.58018">
        <ele>16</ele>
        <time>2021-08-13T07:44:01.218Z</time>
      </trkpt>
      <trkpt lat="50.52013" lon="1.5802">
        <ele>16</ele>
        <time>2021-08-13T07:44:05.223Z</time>
      </trkpt>
      <trkpt lat="50.52019" lon="1.5802">
        <ele>14</ele>
        <time>2021-08-13T07:44:10.217Z</time>
      </trkpt>
      <trkpt lat="50.52024" lon="1.5802">
        <ele>14</ele>
        <time>2021-08-13T07:44:14.223Z</time>
      </trkpt>
      <trkpt lat="50.52029" lon="1.5802">
        <ele>14</ele>
        <time>2021-08-13T07:44:19.224Z</time>
      </trkpt>
      <trkpt lat="50.52032" lon="1.58023">
        <ele>14</ele>
        <time>2021-08-13T07:44:23.220Z</time>
      </trkpt>
      <trkpt lat="50.52037" lon="1.58027">
        <ele>14</ele>
        <time>2021-08-13T07:44:28.222Z</time>
      </trkpt>
      <trkpt lat="50.52044" lon="1.58028">
        <ele>13</ele>
        <time>2021-08-13T07:44:33.225Z</time>
      </trkpt>
      <trkpt lat="50.52051" lon="1.5803">
        <ele>13</ele>
        <time>2021-08-13T07:44:38.217Z</time>
      </trkpt>
      <trkpt lat="50.52055" lon="1.58032">
        <ele>13</ele>
        <time>2021-08-13T07:44:42.226Z</time>
      </trkpt>
      <trkpt lat="50.52062" lon="1.58034">
        <ele>13</ele>
        <time>2021-08-13T07:44:47.227Z</time>
      </trkpt>
      <trkpt lat="50.52066" lon="1.58036">
        <ele>13</ele>
        <time>2021-08-13T07:44:51.220Z</time>
      </trkpt>
      <trkpt lat="50.52072" lon="1.58038">
        <ele>12</ele>
        <time>2021-08-13T07:44:56.223Z</time>
      </trkpt>
      <trkpt lat="50.52078" lon="1.58038">
        <ele>12</ele>
        <time>2021-08-13T07:45:01.225Z</time>
      </trkpt>
      <trkpt lat="50.52082" lon="1.58039">
        <ele>12</ele>
        <time>2021-08-13T07:45:05.235Z</time>
      </trkpt>
      <trkpt lat="50.52087" lon="1.58043">
        <ele>15</ele>
        <time>2021-08-13T07:45:10.217Z</time>
      </trkpt>
      <trkpt lat="50.5209" lon="1.58042">
        <ele>15</ele>
        <time>2021-08-13T07:45:14.216Z</time>
      </trkpt>
      <trkpt lat="50.52096" lon="1.58039">
        <ele>12</ele>
        <time>2021-08-13T07:45:19.221Z</time>
      </trkpt>
      <trkpt lat="50.521" lon="1.5804">
        <ele>12</ele>
        <time>2021-08-13T07:45:23.224Z</time>
      </trkpt>
      <trkpt lat="50.52106" lon="1.58042">
        <ele>15</ele>
        <time>2021-08-13T07:45:28.225Z</time>
      </trkpt>
      <trkpt lat="50.52112" lon="1.58043">
        <ele>15</ele>
        <time>2021-08-13T07:45:33.221Z</time>
      </trkpt>
      <trkpt lat="50.52117" lon="1.58044">
        <ele>15</ele>
        <time>2021-08-13T07:45:38.222Z</time>
      </trkpt>
      <trkpt lat="50.52122" lon="1.58046">
        <ele>15</ele>
        <time>2021-08-13T07:45:42.223Z</time>
      </trkpt>
      <trkpt lat="50.52127" lon="1.58047">
        <ele>14</ele>
        <time>2021-08-13T07:45:47.219Z</time>
      </trkpt>
      <trkpt lat="50.52132" lon="1.58048">
        <ele>14</ele>
        <time>2021-08-13T07:45:51.223Z</time>
      </trkpt>
      <trkpt lat="50.52138" lon="1.5805">
        <ele>14</ele>
        <time>2021-08-13T07:45:56.217Z</time>
      </trkpt>
      <trkpt lat="50.52144" lon="1.58051">
        <ele>14</ele>
        <time>2021-08-13T07:46:01.221Z</time>
      </trkpt>
      <trkpt lat="50.52149" lon="1.58053">
        <ele>14</ele>
        <time>2021-08-13T07:46:06.221Z</time>
      </trkpt>
      <trkpt lat="50.52155" lon="1.58055">
        <ele>15</ele>
        <time>2021-08-13T07:46:11.225Z</time>
      </trkpt>
      <trkpt lat="50.52161" lon="1.58059">
        <ele>15</ele>
        <time>2021-08-13T07:46:16.222Z</time>
      </trkpt>
      <trkpt lat="50.52166" lon="1.58061">
        <ele>15</ele>
        <time>2021-08-13T07:46:20.224Z</time>
      </trkpt>
      <trkpt lat="50.52172" lon="1.58063">
        <ele>15</ele>
        <time>2021-08-13T07:46:25.224Z</time>
      </trkpt>
      <trkpt lat="50.52178" lon="1.58067">
        <ele>15</ele>
        <time>2021-08-13T07:46:30.225Z</time>
      </trkpt>
      <trkpt lat="50.52184" lon="1.5807">
        <ele>15</ele>
        <time>2021-08-13T07:46:35.217Z</time>
      </trkpt>
      <trkpt lat="50.52189" lon="1.58073">
        <ele>15</ele>
        <time>2021-08-13T07:46:40.218Z</time>
      </trkpt>
      <trkpt lat="50.52195" lon="1.58075">
        <ele>15</ele>
        <time>2021-08-13T07:46:45.227Z</time>
      </trkpt>
      <trkpt lat="50.52201" lon="1.58077">
        <ele>15</ele>
        <time>2021-08-13T07:46:50.221Z</time>
      </trkpt>
      <trkpt lat="50.52205" lon="1.58079">
        <ele>15</ele>
        <time>2021-08-13T07:46:54.218Z</time>
      </trkpt>
      <trkpt lat="50.5221" lon="1.58081">
        <ele>14</ele>
        <time>2021-08-13T07:46:59.215Z</time>
      </trkpt>
      <trkpt lat="50.52216" lon="1.58084">
        <ele>14</ele>
        <time>2021-08-13T07:47:04.221Z</time>
      </trkpt>
      <trkpt lat="50.52222" lon="1.58085">
        <ele>14</ele>
        <time>2021-08-13T07:47:09.221Z</time>
      </trkpt>
      <trkpt lat="50.52227" lon="1.58088">
        <ele>14</ele>
        <time>2021-08-13T07:47:14.217Z</time>
      </trkpt>
      <trkpt lat="50.52233" lon="1.58089">
        <ele>14</ele>
        <time>2021-08-13T07:47:19.217Z</time>
      </trkpt>
      <trkpt lat="50.5224" lon="1.58092">
        <ele>13</ele>
        <time>2021-08-13T07:47:24.217Z</time>
      </trkpt>
      <trkpt lat="50.52245" lon="1.58093">
        <ele>13</ele>
        <time>2021-08-13T07:47:28.222Z</time>
      </trkpt>
      <trkpt lat="50.52249" lon="1.58095">
        <ele>13</ele>
        <time>2021-08-13T07:47:32.223Z</time>
      </trkpt>
      <trkpt lat="50.52254" lon="1.581">
        <ele>15</ele>
        <time>2021-08-13T07:47:37.217Z</time>
      </trkpt>
      <trkpt lat="50.52258" lon="1.58101">
        <ele>15</ele>
        <time>2021-08-13T07:47:41.223Z</time>
      </trkpt>
      <trkpt lat="50.52264" lon="1.58103">
        <ele>15</ele>
        <time>2021-08-13T07:47:46.217Z</time>
      </trkpt>
      <trkpt lat="50.52271" lon="1.58104">
        <ele>15</ele>
        <time>2021-08-13T07:47:51.222Z</time>
      </trkpt>
      <trkpt lat="50.52275" lon="1.58104">
        <ele>15</ele>
        <time>2021-08-13T07:47:55.223Z</time>
      </trkpt>
      <trkpt lat="50.52281" lon="1.58107">
        <ele>15</ele>
        <time>2021-08-13T07:48:00.218Z</time>
      </trkpt>
      <trkpt lat="50.52286" lon="1.58111">
        <ele>15</ele>
        <time>2021-08-13T07:48:05.225Z</time>
      </trkpt>
      <trkpt lat="50.52292" lon="1.58115">
        <ele>16</ele>
        <time>2021-08-13T07:48:10.228Z</time>
      </trkpt>
      <trkpt lat="50.52297" lon="1.58118">
        <ele>16</ele>
        <time>2021-08-13T07:48:15.220Z</time>
      </trkpt>
      <trkpt lat="50.52302" lon="1.58123">
        <ele>16</ele>
        <time>2021-08-13T07:48:20.220Z</time>
      </trkpt>
      <trkpt lat="50.52307" lon="1.58125">
        <ele>16</ele>
        <time>2021-08-13T07:48:24.211Z</time>
      </trkpt>
      <trkpt lat="50.52312" lon="1.58128">
        <ele>15</ele>
        <time>2021-08-13T07:48:29.215Z</time>
      </trkpt>
      <trkpt lat="50.52318" lon="1.58131">
        <ele>15</ele>
        <time>2021-08-13T07:48:34.214Z</time>
      </trkpt>
      <trkpt lat="50.52321" lon="1.58133">
        <ele>15</ele>
        <time>2021-08-13T07:48:38.217Z</time>
      </trkpt>
      <trkpt lat="50.52325" lon="1.58136">
        <ele>15</ele>
        <time>2021-08-13T07:48:42.219Z</time>
      </trkpt>
      <trkpt lat="50.52329" lon="1.58138">
        <ele>15</ele>
        <time>2021-08-13T07:48:46.225Z</time>
      </trkpt>
      <trkpt lat="50.52334" lon="1.5814">
        <ele>15</ele>
        <time>2021-08-13T07:48:51.226Z</time>
      </trkpt>
      <trkpt lat="50.52339" lon="1.58142">
        <ele>15</ele>
        <time>2021-08-13T07:48:56.229Z</time>
      </trkpt>
      <trkpt lat="50.52344" lon="1.58143">
        <ele>15</ele>
        <time>2021-08-13T07:49:01.222Z</time>
      </trkpt>
      <trkpt lat="50.52349" lon="1.58145">
        <ele>14</ele>
        <time>2021-08-13T07:49:06.221Z</time>
      </trkpt>
      <trkpt lat="50.52356" lon="1.58146">
        <ele>14</ele>
        <time>2021-08-13T07:49:11.223Z</time>
      </trkpt>
      <trkpt lat="50.52362" lon="1.58147">
        <ele>14</ele>
        <time>2021-08-13T07:49:16.228Z</time>
      </trkpt>
      <trkpt lat="50.52367" lon="1.58152">
        <ele>14</ele>
        <time>2021-08-13T07:49:21.234Z</time>
      </trkpt>
      <trkpt lat="50.52374" lon="1.58156">
        <ele>16</ele>
        <time>2021-08-13T07:49:26.220Z</time>
      </trkpt>
      <trkpt lat="50.52378" lon="1.58161">
        <ele>14</ele>
        <time>2021-08-13T07:49:30.223Z</time>
      </trkpt>
      <trkpt lat="50.52384" lon="1.58165">
        <ele>14</ele>
        <time>2021-08-13T07:49:35.222Z</time>
      </trkpt>
      <trkpt lat="50.52388" lon="1.58167">
        <ele>14</ele>
        <time>2021-08-13T07:49:39.219Z</time>
      </trkpt>
      <trkpt lat="50.52394" lon="1.58168">
        <ele>14</ele>
        <time>2021-08-13T07:49:44.220Z</time>
      </trkpt>
      <trkpt lat="50.52399" lon="1.58171">
        <ele>14</ele>
        <time>2021-08-13T07:49:49.212Z</time>
      </trkpt>
      <trkpt lat="50.52405" lon="1.58174">
        <ele>14</ele>
        <time>2021-08-13T07:49:54.218Z</time>
      </trkpt>
      <trkpt lat="50.5241" lon="1.58176">
        <ele>14</ele>
        <time>2021-08-13T07:49:59.225Z</time>
      </trkpt>
      <trkpt lat="50.52409" lon="1.58183">
        <ele>14</ele>
        <time>2021-08-13T07:50:04.227Z</time>
      </trkpt>
      <trkpt lat="50.52406" lon="1.58188">
        <ele>14</ele>
        <time>2021-08-13T07:50:09.216Z</time>
      </trkpt>
      <trkpt lat="50.52403" lon="1.58191">
        <ele>14</ele>
        <time>2021-08-13T07:50:14.224Z</time>
      </trkpt>
      <trkpt lat="50.524" lon="1.58197">
        <ele>15</ele>
        <time>2021-08-13T07:50:19.224Z</time>
      </trkpt>
      <trkpt lat="50.52397" lon="1.58203">
        <ele>15</ele>
        <time>2021-08-13T07:50:24.233Z</time>
      </trkpt>
      <trkpt lat="50.52394" lon="1.58207">
        <ele>15</ele>
        <time>2021-08-13T07:50:29.222Z</time>
      </trkpt>
      <trkpt lat="50.52392" lon="1.58214">
        <ele>16</ele>
        <time>2021-08-13T07:50:34.222Z</time>
      </trkpt>
      <trkpt lat="50.5239" lon="1.5822">
        <ele>16</ele>
        <time>2021-08-13T07:50:38.225Z</time>
      </trkpt>
      <trkpt lat="50.52388" lon="1.58227">
        <ele>16</ele>
        <time>2021-08-13T07:50:43.221Z</time>
      </trkpt>
      <trkpt lat="50.52386" lon="1.58235">
        <ele>16</ele>
        <time>2021-08-13T07:50:48.218Z</time>
      </trkpt>
      <trkpt lat="50.52384" lon="1.5824">
        <ele>16</ele>
        <time>2021-08-13T07:50:52.217Z</time>
      </trkpt>
      <trkpt lat="50.52381" lon="1.58246">
        <ele>16</ele>
        <time>2021-08-13T07:50:57.228Z</time>
      </trkpt>
      <trkpt lat="50.52378" lon="1.58254">
        <ele>16</ele>
        <time>2021-08-13T07:51:02.221Z</time>
      </trkpt>
      <trkpt lat="50.52374" lon="1.58257">
        <ele>17</ele>
        <time>2021-08-13T07:51:06.220Z</time>
      </trkpt>
      <trkpt lat="50.5237" lon="1.5826">
        <ele>17</ele>
        <time>2021-08-13T07:51:11.223Z</time>
      </trkpt>
      <trkpt lat="50.52367" lon="1.58266">
        <ele>16</ele>
        <time>2021-08-13T07:51:16.223Z</time>
      </trkpt>
      <trkpt lat="50.52366" lon="1.58269">
        <ele>16</ele>
        <time>2021-08-13T07:51:21.229Z</time>
      </trkpt>
      <trkpt lat="50.52367" lon="1.58278">
        <ele>16</ele>
        <time>2021-08-13T07:51:26.239Z</time>
      </trkpt>
      <trkpt lat="50.52364" lon="1.58283">
        <ele>16</ele>
        <time>2021-08-13T07:51:31.232Z</time>
      </trkpt>
      <trkpt lat="50.52362" lon="1.5829">
        <ele>16</ele>
        <time>2021-08-13T07:51:36.226Z</time>
      </trkpt>
      <trkpt lat="50.52361" lon="1.58295">
        <ele>16</ele>
        <time>2021-08-13T07:51:41.224Z</time>
      </trkpt>
      <trkpt lat="50.52358" lon="1.58303">
        <ele>16</ele>
        <time>2021-08-13T07:51:46.224Z</time>
      </trkpt>
      <trkpt lat="50.52356" lon="1.58311">
        <ele>16</ele>
        <time>2021-08-13T07:51:51.221Z</time>
      </trkpt>
      <trkpt lat="50.52354" lon="1.58315">
        <ele>16</ele>
        <time>2021-08-13T07:51:55.277Z</time>
      </trkpt>
      <trkpt lat="50.52351" lon="1.58323">
        <ele>16</ele>
        <time>2021-08-13T07:52:00.229Z</time>
      </trkpt>
      <trkpt lat="50.5235" lon="1.58332">
        <ele>16</ele>
        <time>2021-08-13T07:52:05.221Z</time>
      </trkpt>
      <trkpt lat="50.52348" lon="1.58341">
        <ele>16</ele>
        <time>2021-08-13T07:52:10.233Z</time>
      </trkpt>
      <trkpt lat="50.52345" lon="1.58349">
        <ele>16</ele>
        <time>2021-08-13T07:52:15.225Z</time>
      </trkpt>
      <trkpt lat="50.52343" lon="1.58355">
        <ele>16</ele>
        <time>2021-08-13T07:52:19.230Z</time>
      </trkpt>
      <trkpt lat="50.5234" lon="1.58364">
        <ele>16</ele>
        <time>2021-08-13T07:52:24.227Z</time>
      </trkpt>
      <trkpt lat="50.52338" lon="1.58371">
        <ele>16</ele>
        <time>2021-08-13T07:52:28.231Z</time>
      </trkpt>
      <trkpt lat="50.52335" lon="1.58379">
        <ele>15</ele>
        <time>2021-08-13T07:52:33.234Z</time>
      </trkpt>
      <trkpt lat="50.52332" lon="1.58385">
        <ele>15</ele>
        <time>2021-08-13T07:52:38.224Z</time>
      </trkpt>
      <trkpt lat="50.52334" lon="1.58392">
        <ele>15</ele>
        <time>2021-08-13T07:52:43.225Z</time>
      </trkpt>
      <trkpt lat="50.52338" lon="1.584">
        <ele>15</ele>
        <time>2021-08-13T07:52:48.220Z</time>
      </trkpt>
      <trkpt lat="50.52342" lon="1.58399">
        <ele>15</ele>
        <time>2021-08-13T07:52:52.224Z</time>
      </trkpt>
      <trkpt lat="50.52346" lon="1.58404">
        <ele>15</ele>
        <time>2021-08-13T07:52:56.231Z</time>
      </trkpt>
      <trkpt lat="50.52351" lon="1.58409">
        <ele>15</ele>
        <time>2021-08-13T07:53:01.229Z</time>
      </trkpt>
      <trkpt lat="50.52355" lon="1.58415">
        <ele>15</ele>
        <time>2021-08-13T07:53:05.231Z</time>
      </trkpt>
      <trkpt lat="50.52361" lon="1.58422">
        <ele>15</ele>
        <time>2021-08-13T07:53:10.224Z</time>
      </trkpt>
      <trkpt lat="50.52366" lon="1.58427">
        <ele>15</ele>
        <time>2021-08-13T07:53:15.215Z</time>
      </trkpt>
      <trkpt lat="50.52369" lon="1.58432">
        <ele>14</ele>
        <time>2021-08-13T07:53:19.216Z</time>
      </trkpt>
      <trkpt lat="50.52374" lon="1.58438">
        <ele>14</ele>
        <time>2021-08-13T07:53:24.223Z</time>
      </trkpt>
      <trkpt lat="50.52378" lon="1.58442">
        <ele>14</ele>
        <time>2021-08-13T07:53:28.226Z</time>
      </trkpt>
      <trkpt lat="50.52383" lon="1.58446">
        <ele>14</ele>
        <time>2021-08-13T07:53:33.220Z</time>
      </trkpt>
      <trkpt lat="50.52389" lon="1.58452">
        <ele>14</ele>
        <time>2021-08-13T07:53:38.218Z</time>
      </trkpt>
      <trkpt lat="50.52394" lon="1.58456">
        <ele>14</ele>
        <time>2021-08-13T07:53:43.216Z</time>
      </trkpt>
      <trkpt lat="50.52396" lon="1.58462">
        <ele>14</ele>
        <time>2021-08-13T07:53:47.221Z</time>
      </trkpt>
      <trkpt lat="50.52395" lon="1.58453">
        <ele>14</ele>
        <time>2021-08-13T07:54:21.215Z</time>
      </trkpt>
      <trkpt lat="50.52395" lon="1.58453">
        <ele>14</ele>
        <time>2021-08-13T07:54:26.224Z</time>
      </trkpt>
      <trkpt lat="50.52395" lon="1.58452">
        <ele>14</ele>
        <time>2021-08-13T07:54:31.217Z</time>
      </trkpt>
      <trkpt lat="50.52395" lon="1.58452">
        <ele>14</ele>
        <time>2021-08-13T07:54:35.222Z</time>
      </trkpt>
      <trkpt lat="50.52397" lon="1.58449">
        <ele>14</ele>
        <time>2021-08-13T07:54:39.228Z</time>
      </trkpt>
      <trkpt lat="50.52405" lon="1.58444">
        <ele>14</ele>
        <time>2021-08-13T08:00:34.216Z</time>
      </trkpt>
      <trkpt lat="50.52405" lon="1.58444">
        <ele>14</ele>
        <time>2021-08-13T08:00:38.222Z</time>
      </trkpt>
      <trkpt lat="50.52402" lon="1.58457">
        <ele>14</ele>
        <time>2021-08-13T08:00:43.229Z</time>
      </trkpt>
      <trkpt lat="50.52402" lon="1.58466">
        <ele>14</ele>
        <time>2021-08-13T08:00:48.224Z</time>
      </trkpt>
      <trkpt lat="50.52403" lon="1.58469">
        <ele>14</ele>
        <time>2021-08-13T08:00:52.216Z</time>
      </trkpt>
      <trkpt lat="50.52403" lon="1.58471">
        <ele>14</ele>
        <time>2021-08-13T08:00:56.218Z</time>
      </trkpt>
      <trkpt lat="50.52403" lon="1.58473">
        <ele>14</ele>
        <time>2021-08-13T08:01:01.220Z</time>
      </trkpt>
      <trkpt lat="50.52402" lon="1.58465">
        <ele>14</ele>
        <time>2021-08-13T08:01:06.223Z</time>
      </trkpt>
      <trkpt lat="50.52408" lon="1.58455">
        <ele>14</ele>
        <time>2021-08-13T08:01:11.222Z</time>
      </trkpt>
      <trkpt lat="50.52409" lon="1.58456">
        <ele>14</ele>
        <time>2021-08-13T08:01:16.216Z</time>
      </trkpt>
      <trkpt lat="50.52408" lon="1.58453">
        <ele>14</ele>
        <time>2021-08-13T08:01:20.226Z</time>
      </trkpt>
      <trkpt lat="50.52402" lon="1.58449">
        <ele>14</ele>
        <time>2021-08-13T08:01:25.216Z</time>
      </trkpt>
      <trkpt lat="50.52396" lon="1.58444">
        <ele>14</ele>
        <time>2021-08-13T08:01:29.216Z</time>
      </trkpt>
      <trkpt lat="50.5239" lon="1.58439">
        <ele>14</ele>
        <time>2021-08-13T08:01:33.229Z</time>
      </trkpt>
      <trkpt lat="50.52384" lon="1.58437">
        <ele>14</ele>
        <time>2021-08-13T08:01:38.224Z</time>
      </trkpt>
      <trkpt lat="50.52379" lon="1.58435">
        <ele>14</ele>
        <time>2021-08-13T08:01:42.219Z</time>
      </trkpt>
      <trkpt lat="50.52374" lon="1.5843">
        <ele>15</ele>
        <time>2021-08-13T08:01:47.239Z</time>
      </trkpt>
      <trkpt lat="50.52369" lon="1.58424">
        <ele>15</ele>
        <time>2021-08-13T08:01:52.223Z</time>
      </trkpt>
      <trkpt lat="50.52364" lon="1.5842">
        <ele>15</ele>
        <time>2021-08-13T08:01:56.227Z</time>
      </trkpt>
      <trkpt lat="50.52359" lon="1.58416">
        <ele>15</ele>
        <time>2021-08-13T08:02:01.222Z</time>
      </trkpt>
      <trkpt lat="50.52354" lon="1.58412">
        <ele>15</ele>
        <time>2021-08-13T08:02:05.236Z</time>
      </trkpt>
      <trkpt lat="50.52348" lon="1.58408">
        <ele>15</ele>
        <time>2021-08-13T08:02:10.220Z</time>
      </trkpt>
      <trkpt lat="50.52343" lon="1.58403">
        <ele>15</ele>
        <time>2021-08-13T08:02:14.229Z</time>
      </trkpt>
      <trkpt lat="50.52338" lon="1.58397">
        <ele>15</ele>
        <time>2021-08-13T08:02:19.225Z</time>
      </trkpt>
      <trkpt lat="50.52333" lon="1.58392">
        <ele>15</ele>
        <time>2021-08-13T08:02:24.240Z</time>
      </trkpt>
      <trkpt lat="50.52328" lon="1.58386">
        <ele>15</ele>
        <time>2021-08-13T08:02:29.229Z</time>
      </trkpt>
      <trkpt lat="50.52322" lon="1.58379">
        <ele>15</ele>
        <time>2021-08-13T08:02:34.217Z</time>
      </trkpt>
      <trkpt lat="50.52318" lon="1.58375">
        <ele>15</ele>
        <time>2021-08-13T08:02:38.224Z</time>
      </trkpt>
      <trkpt lat="50.52312" lon="1.58371">
        <ele>16</ele>
        <time>2021-08-13T08:02:43.226Z</time>
      </trkpt>
      <trkpt lat="50.52306" lon="1.58366">
        <ele>16</ele>
        <time>2021-08-13T08:02:48.230Z</time>
      </trkpt>
      <trkpt lat="50.52301" lon="1.58361">
        <ele>16</ele>
        <time>2021-08-13T08:02:53.227Z</time>
      </trkpt>
      <trkpt lat="50.52295" lon="1.58356">
        <ele>16</ele>
        <time>2021-08-13T08:02:58.230Z</time>
      </trkpt>
      <trkpt lat="50.52289" lon="1.58352">
        <ele>16</ele>
        <time>2021-08-13T08:03:03.221Z</time>
      </trkpt>
      <trkpt lat="50.52284" lon="1.5835">
        <ele>16</ele>
        <time>2021-08-13T08:03:07.232Z</time>
      </trkpt>
      <trkpt lat="50.52278" lon="1.58347">
        <ele>16</ele>
        <time>2021-08-13T08:03:12.238Z</time>
      </trkpt>
      <trkpt lat="50.52273" lon="1.58344">
        <ele>16</ele>
        <time>2021-08-13T08:03:17.224Z</time>
      </trkpt>
      <trkpt lat="50.5227" lon="1.58344">
        <ele>16</ele>
        <time>2021-08-13T08:03:22.228Z</time>
      </trkpt>
      <trkpt lat="50.52264" lon="1.5834">
        <ele>16</ele>
        <time>2021-08-13T08:03:27.224Z</time>
      </trkpt>
      <trkpt lat="50.52257" lon="1.58338">
        <ele>16</ele>
        <time>2021-08-13T08:03:32.228Z</time>
      </trkpt>
      <trkpt lat="50.5225" lon="1.58336">
        <ele>16</ele>
        <time>2021-08-13T08:03:37.215Z</time>
      </trkpt>
      <trkpt lat="50.52243" lon="1.58333">
        <ele>16</ele>
        <time>2021-08-13T08:03:42.226Z</time>
      </trkpt>
      <trkpt lat="50.52237" lon="1.58332">
        <ele>16</ele>
        <time>2021-08-13T08:03:47.217Z</time>
      </trkpt>
      <trkpt lat="50.52231" lon="1.5833">
        <ele>17</ele>
        <time>2021-08-13T08:03:51.214Z</time>
      </trkpt>
      <trkpt lat="50.52225" lon="1.58328">
        <ele>17</ele>
        <time>2021-08-13T08:03:56.216Z</time>
      </trkpt>
      <trkpt lat="50.52219" lon="1.58326">
        <ele>17</ele>
        <time>2021-08-13T08:04:01.215Z</time>
      </trkpt>
      <trkpt lat="50.52213" lon="1.58323">
        <ele>17</ele>
        <time>2021-08-13T08:04:06.214Z</time>
      </trkpt>
      <trkpt lat="50.52209" lon="1.58322">
        <ele>17</ele>
        <time>2021-08-13T08:04:10.223Z</time>
      </trkpt>
      <trkpt lat="50.52206" lon="1.58326">
        <ele>17</ele>
        <time>2021-08-13T08:04:15.218Z</time>
      </trkpt>
      <trkpt lat="50.52205" lon="1.5833">
        <ele>17</ele>
        <time>2021-08-13T08:04:19.218Z</time>
      </trkpt>
      <trkpt lat="50.52204" lon="1.58339">
        <ele>17</ele>
        <time>2021-08-13T08:04:24.222Z</time>
      </trkpt>
      <trkpt lat="50.52201" lon="1.5835">
        <ele>17</ele>
        <time>2021-08-13T08:04:29.216Z</time>
      </trkpt>
      <trkpt lat="50.522" lon="1.58355">
        <ele>17</ele>
        <time>2021-08-13T08:04:34.218Z</time>
      </trkpt>
      <trkpt lat="50.52199" lon="1.58362">
        <ele>17</ele>
        <time>2021-08-13T08:04:39.210Z</time>
      </trkpt>
      <trkpt lat="50.52198" lon="1.58367">
        <ele>17</ele>
        <time>2021-08-13T08:04:43.213Z</time>
      </trkpt>
      <trkpt lat="50.52197" lon="1.58371">
        <ele>17</ele>
        <time>2021-08-13T08:04:47.216Z</time>
      </trkpt>
      <trkpt lat="50.52196" lon="1.58378">
        <ele>17</ele>
        <time>2021-08-13T08:04:52.217Z</time>
      </trkpt>
      <trkpt lat="50.52195" lon="1.58383">
        <ele>17</ele>
        <time>2021-08-13T08:04:56.221Z</time>
      </trkpt>
      <trkpt lat="50.52195" lon="1.58388">
        <ele>17</ele>
        <time>2021-08-13T08:05:01.221Z</time>
      </trkpt>
      <trkpt lat="50.52195" lon="1.58388">
        <ele>17</ele>
        <time>2021-08-13T08:05:06.227Z</time>
      </trkpt>
      <trkpt lat="50.52199" lon="1.58393">
        <ele>17</ele>
        <time>2021-08-13T08:05:11.223Z</time>
      </trkpt>
      <trkpt lat="50.52203" lon="1.58394">
        <ele>17</ele>
        <time>2021-08-13T08:05:16.227Z</time>
      </trkpt>
      <trkpt lat="50.52208" lon="1.58396">
        <ele>17</ele>
        <time>2021-08-13T08:05:21.233Z</time>
      </trkpt>
      <trkpt lat="50.52214" lon="1.58399">
        <ele>16</ele>
        <time>2021-08-13T08:05:26.220Z</time>
      </trkpt>
      <trkpt lat="50.52219" lon="1.58401">
        <ele>16</ele>
        <time>2021-08-13T08:05:31.228Z</time>
      </trkpt>
      <trkpt lat="50.52226" lon="1.58403">
        <ele>16</ele>
        <time>2021-08-13T08:05:36.226Z</time>
      </trkpt>
      <trkpt lat="50.52232" lon="1.58405">
        <ele>16</ele>
        <time>2021-08-13T08:05:41.217Z</time>
      </trkpt>
      <trkpt lat="50.52238" lon="1.58408">
        <ele>16</ele>
        <time>2021-08-13T08:05:46.230Z</time>
      </trkpt>
      <trkpt lat="50.52243" lon="1.58417">
        <ele>16</ele>
        <time>2021-08-13T08:05:51.217Z</time>
      </trkpt>
      <trkpt lat="50.52248" lon="1.58421">
        <ele>16</ele>
        <time>2021-08-13T08:05:55.219Z</time>
      </trkpt>
      <trkpt lat="50.52253" lon="1.58424">
        <ele>16</ele>
        <time>2021-08-13T08:05:59.218Z</time>
      </trkpt>
      <trkpt lat="50.52257" lon="1.58426">
        <ele>16</ele>
        <time>2021-08-13T08:06:03.214Z</time>
      </trkpt>
      <trkpt lat="50.52262" lon="1.5843">
        <ele>16</ele>
        <time>2021-08-13T08:06:07.223Z</time>
      </trkpt>
      <trkpt lat="50.52265" lon="1.58435">
        <ele>15</ele>
        <time>2021-08-13T08:06:11.228Z</time>
      </trkpt>
      <trkpt lat="50.52269" lon="1.5844">
        <ele>15</ele>
        <time>2021-08-13T08:06:16.209Z</time>
      </trkpt>
      <trkpt lat="50.52271" lon="1.58443">
        <ele>15</ele>
        <time>2021-08-13T08:06:20.214Z</time>
      </trkpt>
      <trkpt lat="50.52277" lon="1.58447">
        <ele>15</ele>
        <time>2021-08-13T08:06:25.225Z</time>
      </trkpt>
      <trkpt lat="50.52282" lon="1.58451">
        <ele>15</ele>
        <time>2021-08-13T08:06:30.221Z</time>
      </trkpt>
      <trkpt lat="50.52288" lon="1.58456">
        <ele>15</ele>
        <time>2021-08-13T08:06:35.215Z</time>
      </trkpt>
      <trkpt lat="50.52293" lon="1.5846">
        <ele>15</ele>
        <time>2021-08-13T08:06:40.216Z</time>
      </trkpt>
      <trkpt lat="50.52298" lon="1.58463">
        <ele>15</ele>
        <time>2021-08-13T08:06:44.218Z</time>
      </trkpt>
      <trkpt lat="50.52303" lon="1.58467">
        <ele>15</ele>
        <time>2021-08-13T08:06:49.214Z</time>
      </trkpt>
      <trkpt lat="50.52308" lon="1.58465">
        <ele>15</ele>
        <time>2021-08-13T08:06:53.215Z</time>
      </trkpt>
      <trkpt lat="50.52313" lon="1.5846">
        <ele>15</ele>
        <time>2021-08-13T08:06:57.216Z</time>
      </trkpt>
      <trkpt lat="50.52317" lon="1.5845">
        <ele>14</ele>
        <time>2021-08-13T08:07:02.214Z</time>
      </trkpt>
      <trkpt lat="50.5232" lon="1.5844">
        <ele>14</ele>
        <time>2021-08-13T08:07:07.216Z</time>
      </trkpt>
      <trkpt lat="50.52323" lon="1.58434">
        <ele>14</ele>
        <time>2021-08-13T08:07:11.225Z</time>
      </trkpt>
      <trkpt lat="50.52325" lon="1.58434">
        <ele>14</ele>
        <time>2021-08-13T08:10:24.221Z</time>
      </trkpt>
      <trkpt lat="50.52324" lon="1.58432">
        <ele>14</ele>
        <time>2021-08-13T08:10:28.217Z</time>
      </trkpt>
      <trkpt lat="50.52324" lon="1.58415">
        <ele>15</ele>
        <time>2021-08-13T08:10:33.214Z</time>
      </trkpt>
      <trkpt lat="50.52318" lon="1.58412">
        <ele>15</ele>
        <time>2021-08-13T08:10:37.216Z</time>
      </trkpt>
      <trkpt lat="50.52303" lon="1.5842">
        <ele>15</ele>
        <time>2021-08-13T08:10:41.212Z</time>
      </trkpt>
      <trkpt lat="50.52313" lon="1.58454">
        <ele>14</ele>
        <time>2021-08-13T08:11:18.214Z</time>
      </trkpt>
      <trkpt lat="50.52311" lon="1.58459">
        <ele>15</ele>
        <time>2021-08-13T08:11:22.213Z</time>
      </trkpt>
      <trkpt lat="50.5231" lon="1.58467">
        <ele>15</ele>
        <time>2021-08-13T08:11:26.214Z</time>
      </trkpt>
      <trkpt lat="50.52314" lon="1.58474">
        <ele>15</ele>
        <time>2021-08-13T08:11:30.219Z</time>
      </trkpt>
      <trkpt lat="50.52319" lon="1.58478">
        <ele>15</ele>
        <time>2021-08-13T08:11:34.212Z</time>
      </trkpt>
      <trkpt lat="50.52324" lon="1.58482">
        <ele>15</ele>
        <time>2021-08-13T08:11:38.216Z</time>
      </trkpt>
      <trkpt lat="50.52328" lon="1.58486">
        <ele>15</ele>
        <time>2021-08-13T08:11:42.208Z</time>
      </trkpt>
      <trkpt lat="50.52332" lon="1.5849">
        <ele>15</ele>
        <time>2021-08-13T08:11:47.223Z</time>
      </trkpt>
      <trkpt lat="50.52338" lon="1.58493">
        <ele>15</ele>
        <time>2021-08-13T08:11:52.212Z</time>
      </trkpt>
      <trkpt lat="50.52343" lon="1.58497">
        <ele>15</ele>
        <time>2021-08-13T08:11:57.224Z</time>
      </trkpt>
      <trkpt lat="50.52348" lon="1.585">
        <ele>16</ele>
        <time>2021-08-13T08:12:02.219Z</time>
      </trkpt>
      <trkpt lat="50.52353" lon="1.58503">
        <ele>16</ele>
        <time>2021-08-13T08:12:06.216Z</time>
      </trkpt>
      <trkpt lat="50.52357" lon="1.58506">
        <ele>16</ele>
        <time>2021-08-13T08:12:10.222Z</time>
      </trkpt>
      <trkpt lat="50.5236" lon="1.58511">
        <ele>16</ele>
        <time>2021-08-13T08:12:14.220Z</time>
      </trkpt>
      <trkpt lat="50.52365" lon="1.58516">
        <ele>15</ele>
        <time>2021-08-13T08:12:19.228Z</time>
      </trkpt>
      <trkpt lat="50.52369" lon="1.58518">
        <ele>15</ele>
        <time>2021-08-13T08:12:24.231Z</time>
      </trkpt>
      <trkpt lat="50.52375" lon="1.58521">
        <ele>15</ele>
        <time>2021-08-13T08:12:29.220Z</time>
      </trkpt>
      <trkpt lat="50.52378" lon="1.58517">
        <ele>15</ele>
        <time>2021-08-13T08:12:33.228Z</time>
      </trkpt>
      <trkpt lat="50.52379" lon="1.58514">
        <ele>15</ele>
        <time>2021-08-13T08:12:37.327Z</time>
      </trkpt>
      <trkpt lat="50.52383" lon="1.58509">
        <ele>15</ele>
        <time>2021-08-13T08:12:42.217Z</time>
      </trkpt>
      <trkpt lat="50.52386" lon="1.58503">
        <ele>15</ele>
        <time>2021-08-13T08:12:46.217Z</time>
      </trkpt>
      <trkpt lat="50.52388" lon="1.58497">
        <ele>15</ele>
        <time>2021-08-13T08:12:51.217Z</time>
      </trkpt>
      <trkpt lat="50.5239" lon="1.58489">
        <ele>15</ele>
        <time>2021-08-13T08:12:56.225Z</time>
      </trkpt>
      <trkpt lat="50.52392" lon="1.58481">
        <ele>14</ele>
        <time>2021-08-13T08:13:01.226Z</time>
      </trkpt>
      <trkpt lat="50.52394" lon="1.58474">
        <ele>14</ele>
        <time>2021-08-13T08:13:06.231Z</time>
      </trkpt>
      <trkpt lat="50.52396" lon="1.58468">
        <ele>14</ele>
        <time>2021-08-13T08:13:10.213Z</time>
      </trkpt>
      <trkpt lat="50.52398" lon="1.5846">
        <ele>14</ele>
        <time>2021-08-13T08:13:14.221Z</time>
      </trkpt>
      <trkpt lat="50.52402" lon="1.58453">
        <ele>14</ele>
        <time>2021-08-13T08:13:19.217Z</time>
      </trkpt>
      <trkpt lat="50.52405" lon="1.58446">
        <ele>14</ele>
        <time>2021-08-13T08:13:24.220Z</time>
      </trkpt>
      <trkpt lat="50.52407" lon="1.58438">
        <ele>14</ele>
        <time>2021-08-13T08:13:29.218Z</time>
      </trkpt>
      <trkpt lat="50.5241" lon="1.58433">
        <ele>14</ele>
        <time>2021-08-13T08:13:33.221Z</time>
      </trkpt>
      <trkpt lat="50.52413" lon="1.58426">
        <ele>15</ele>
        <time>2021-08-13T08:13:37.215Z</time>
      </trkpt>
      <trkpt lat="50.52415" lon="1.58421">
        <ele>15</ele>
        <time>2021-08-13T08:13:41.220Z</time>
      </trkpt>
      <trkpt lat="50.52417" lon="1.58413">
        <ele>15</ele>
        <time>2021-08-13T08:13:45.214Z</time>
      </trkpt>
      <trkpt lat="50.52419" lon="1.58404">
        <ele>15</ele>
        <time>2021-08-13T08:13:50.220Z</time>
      </trkpt>
      <trkpt lat="50.52419" lon="1.58396">
        <ele>16</ele>
        <time>2021-08-13T08:13:55.211Z</time>
      </trkpt>
      <trkpt lat="50.52422" lon="1.58391">
        <ele>16</ele>
        <time>2021-08-13T08:13:59.228Z</time>
      </trkpt>
      <trkpt lat="50.52426" lon="1.58385">
        <ele>16</ele>
        <time>2021-08-13T08:14:04.231Z</time>
      </trkpt>
      <trkpt lat="50.52429" lon="1.5838">
        <ele>16</ele>
        <time>2021-08-13T08:14:08.216Z</time>
      </trkpt>
      <trkpt lat="50.5243" lon="1.58374">
        <ele>15</ele>
        <time>2021-08-13T08:14:12.215Z</time>
      </trkpt>
      <trkpt lat="50.5243" lon="1.58366">
        <ele>15</ele>
        <time>2021-08-13T08:14:16.218Z</time>
      </trkpt>
      <trkpt lat="50.52429" lon="1.58357">
        <ele>15</ele>
        <time>2021-08-13T08:14:21.213Z</time>
      </trkpt>
      <trkpt lat="50.52432" lon="1.58351">
        <ele>15</ele>
        <time>2021-08-13T08:14:25.323Z</time>
      </trkpt>
      <trkpt lat="50.52436" lon="1.58344">
        <ele>16</ele>
        <time>2021-08-13T08:14:30.218Z</time>
      </trkpt>
      <trkpt lat="50.52438" lon="1.58339">
        <ele>16</ele>
        <time>2021-08-13T08:14:34.222Z</time>
      </trkpt>
      <trkpt lat="50.52437" lon="1.58332">
        <ele>16</ele>
        <time>2021-08-13T08:14:38.216Z</time>
      </trkpt>
      <trkpt lat="50.52442" lon="1.58327">
        <ele>16</ele>
        <time>2021-08-13T08:14:42.220Z</time>
      </trkpt>
      <trkpt lat="50.52444" lon="1.58321">
        <ele>16</ele>
        <time>2021-08-13T08:14:46.222Z</time>
      </trkpt>
      <trkpt lat="50.52446" lon="1.58313">
        <ele>15</ele>
        <time>2021-08-13T08:14:51.220Z</time>
      </trkpt>
      <trkpt lat="50.5245" lon="1.58307">
        <ele>15</ele>
        <time>2021-08-13T08:14:56.219Z</time>
      </trkpt>
      <trkpt lat="50.52453" lon="1.58299">
        <ele>15</ele>
        <time>2021-08-13T08:15:01.218Z</time>
      </trkpt>
      <trkpt lat="50.52456" lon="1.58293">
        <ele>15</ele>
        <time>2021-08-13T08:15:05.212Z</time>
      </trkpt>
      <trkpt lat="50.52459" lon="1.58286">
        <ele>14</ele>
        <time>2021-08-13T08:15:09.228Z</time>
      </trkpt>
      <trkpt lat="50.52462" lon="1.58281">
        <ele>14</ele>
        <time>2021-08-13T08:15:13.217Z</time>
      </trkpt>
      <trkpt lat="50.52465" lon="1.58275">
        <ele>14</ele>
        <time>2021-08-13T08:15:17.210Z</time>
      </trkpt>
      <trkpt lat="50.52465" lon="1.58267">
        <ele>14</ele>
        <time>2021-08-13T08:15:22.211Z</time>
      </trkpt>
      <trkpt lat="50.52464" lon="1.58262">
        <ele>13</ele>
        <time>2021-08-13T08:15:26.212Z</time>
      </trkpt>
      <trkpt lat="50.52452" lon="1.58249">
        <ele>14</ele>
        <time>2021-08-13T08:15:59.217Z</time>
      </trkpt>
      <trkpt lat="50.52474" lon="1.58252">
        <ele>13</ele>
        <time>2021-08-13T08:23:48.221Z</time>
      </trkpt>
      <trkpt lat="50.52481" lon="1.58252">
        <ele>13</ele>
        <time>2021-08-13T08:23:52.231Z</time>
      </trkpt>
      <trkpt lat="50.52483" lon="1.58247">
        <ele>13</ele>
        <time>2021-08-13T08:23:56.231Z</time>
      </trkpt>
      <trkpt lat="50.52485" lon="1.58241">
        <ele>13</ele>
        <time>2021-08-13T08:24:00.230Z</time>
      </trkpt>
      <trkpt lat="50.52486" lon="1.58234">
        <ele>13</ele>
        <time>2021-08-13T08:24:04.235Z</time>
      </trkpt>
      <trkpt lat="50.52489" lon="1.58226">
        <ele>11</ele>
        <time>2021-08-13T08:24:09.228Z</time>
      </trkpt>
      <trkpt lat="50.52486" lon="1.58217">
        <ele>11</ele>
        <time>2021-08-13T08:24:13.238Z</time>
      </trkpt>
      <trkpt lat="50.52479" lon="1.58209">
        <ele>13</ele>
        <time>2021-08-13T08:24:18.231Z</time>
      </trkpt>
      <trkpt lat="50.52473" lon="1.58205">
        <ele>11</ele>
        <time>2021-08-13T08:24:22.226Z</time>
      </trkpt>
      <trkpt lat="50.52467" lon="1.582">
        <ele>11</ele>
        <time>2021-08-13T08:24:26.225Z</time>
      </trkpt>
      <trkpt lat="50.52461" lon="1.58195">
        <ele>11</ele>
        <time>2021-08-13T08:24:31.238Z</time>
      </trkpt>
      <trkpt lat="50.52455" lon="1.58189">
        <ele>13</ele>
        <time>2021-08-13T08:24:36.230Z</time>
      </trkpt>
      <trkpt lat="50.5245" lon="1.58185">
        <ele>13</ele>
        <time>2021-08-13T08:24:40.240Z</time>
      </trkpt>
      <trkpt lat="50.52444" lon="1.58181">
        <ele>13</ele>
        <time>2021-08-13T08:24:44.222Z</time>
      </trkpt>
      <trkpt lat="50.52439" lon="1.58178">
        <ele>13</ele>
        <time>2021-08-13T08:24:48.230Z</time>
      </trkpt>
      <trkpt lat="50.52434" lon="1.58173">
        <ele>13</ele>
        <time>2021-08-13T08:24:52.234Z</time>
      </trkpt>
      <trkpt lat="50.52428" lon="1.58169">
        <ele>14</ele>
        <time>2021-08-13T08:24:57.235Z</time>
      </trkpt>
      <trkpt lat="50.52423" lon="1.58164">
        <ele>14</ele>
        <time>2021-08-13T08:25:01.236Z</time>
      </trkpt>
      <trkpt lat="50.52417" lon="1.58161">
        <ele>14</ele>
        <time>2021-08-13T08:25:06.226Z</time>
      </trkpt>
      <trkpt lat="50.52412" lon="1.58159">
        <ele>14</ele>
        <time>2021-08-13T08:25:10.224Z</time>
      </trkpt>
      <trkpt lat="50.52406" lon="1.58156">
        <ele>14</ele>
        <time>2021-08-13T08:25:14.221Z</time>
      </trkpt>
      <trkpt lat="50.52401" lon="1.58154">
        <ele>14</ele>
        <time>2021-08-13T08:25:18.228Z</time>
      </trkpt>
      <trkpt lat="50.52394" lon="1.58151">
        <ele>13</ele>
        <time>2021-08-13T08:25:23.238Z</time>
      </trkpt>
      <trkpt lat="50.52388" lon="1.58148">
        <ele>13</ele>
        <time>2021-08-13T08:25:28.237Z</time>
      </trkpt>
      <trkpt lat="50.52383" lon="1.58146">
        <ele>13</ele>
        <time>2021-08-13T08:25:32.226Z</time>
      </trkpt>
      <trkpt lat="50.52377" lon="1.58144">
        <ele>13</ele>
        <time>2021-08-13T08:25:36.221Z</time>
      </trkpt>
      <trkpt lat="50.52372" lon="1.58142">
        <ele>14</ele>
        <time>2021-08-13T08:25:40.227Z</time>
      </trkpt>
      <trkpt lat="50.52365" lon="1.58139">
        <ele>14</ele>
        <time>2021-08-13T08:25:45.229Z</time>
      </trkpt>
      <trkpt lat="50.52358" lon="1.58136">
        <ele>14</ele>
        <time>2021-08-13T08:25:50.225Z</time>
      </trkpt>
      <trkpt lat="50.52353" lon="1.58134">
        <ele>14</ele>
        <time>2021-08-13T08:25:54.232Z</time>
      </trkpt>
      <trkpt lat="50.52348" lon="1.58132">
        <ele>14</ele>
        <time>2021-08-13T08:25:58.235Z</time>
      </trkpt>
      <trkpt lat="50.52343" lon="1.5813">
        <ele>15</ele>
        <time>2021-08-13T08:26:02.232Z</time>
      </trkpt>
      <trkpt lat="50.52338" lon="1.58128">
        <ele>15</ele>
        <time>2021-08-13T08:26:06.245Z</time>
      </trkpt>
      <trkpt lat="50.52332" lon="1.58126">
        <ele>15</ele>
        <time>2021-08-13T08:26:11.236Z</time>
      </trkpt>
      <trkpt lat="50.52325" lon="1.58124">
        <ele>13</ele>
        <time>2021-08-13T08:26:16.239Z</time>
      </trkpt>
      <trkpt lat="50.5232" lon="1.58121">
        <ele>13</ele>
        <time>2021-08-13T08:26:20.238Z</time>
      </trkpt>
      <trkpt lat="50.52315" lon="1.58119">
        <ele>16</ele>
        <time>2021-08-13T08:26:24.236Z</time>
      </trkpt>
      <trkpt lat="50.52308" lon="1.58115">
        <ele>16</ele>
        <time>2021-08-13T08:26:29.232Z</time>
      </trkpt>
      <trkpt lat="50.52301" lon="1.5811">
        <ele>16</ele>
        <time>2021-08-13T08:26:34.230Z</time>
      </trkpt>
      <trkpt lat="50.52295" lon="1.58108">
        <ele>16</ele>
        <time>2021-08-13T08:26:39.233Z</time>
      </trkpt>
      <trkpt lat="50.52288" lon="1.58105">
        <ele>15</ele>
        <time>2021-08-13T08:26:44.224Z</time>
      </trkpt>
      <trkpt lat="50.52282" lon="1.58102">
        <ele>15</ele>
        <time>2021-08-13T08:26:49.238Z</time>
      </trkpt>
      <trkpt lat="50.52275" lon="1.581">
        <ele>15</ele>
        <time>2021-08-13T08:26:54.238Z</time>
      </trkpt>
      <trkpt lat="50.52269" lon="1.58097">
        <ele>15</ele>
        <time>2021-08-13T08:26:59.236Z</time>
      </trkpt>
      <trkpt lat="50.52263" lon="1.58096">
        <ele>13</ele>
        <time>2021-08-13T08:27:03.249Z</time>
      </trkpt>
      <trkpt lat="50.52257" lon="1.58092">
        <ele>13</ele>
        <time>2021-08-13T08:27:08.225Z</time>
      </trkpt>
      <trkpt lat="50.52251" lon="1.5809">
        <ele>13</ele>
        <time>2021-08-13T08:27:12.227Z</time>
      </trkpt>
      <trkpt lat="50.52245" lon="1.58087">
        <ele>13</ele>
        <time>2021-08-13T08:27:17.230Z</time>
      </trkpt>
      <trkpt lat="50.52238" lon="1.58084">
        <ele>13</ele>
        <time>2021-08-13T08:27:22.228Z</time>
      </trkpt>
      <trkpt lat="50.52233" lon="1.58082">
        <ele>14</ele>
        <time>2021-08-13T08:27:26.245Z</time>
      </trkpt>
      <trkpt lat="50.52226" lon="1.58079">
        <ele>14</ele>
        <time>2021-08-13T08:27:31.228Z</time>
      </trkpt>
      <trkpt lat="50.52221" lon="1.58077">
        <ele>14</ele>
        <time>2021-08-13T08:27:35.234Z</time>
      </trkpt>
      <trkpt lat="50.52214" lon="1.58074">
        <ele>14</ele>
        <time>2021-08-13T08:27:40.234Z</time>
      </trkpt>
      <trkpt lat="50.52209" lon="1.58072">
        <ele>14</ele>
        <time>2021-08-13T08:27:44.241Z</time>
      </trkpt>
      <trkpt lat="50.52203" lon="1.5807">
        <ele>15</ele>
        <time>2021-08-13T08:27:49.237Z</time>
      </trkpt>
      <trkpt lat="50.52197" lon="1.58068">
        <ele>15</ele>
        <time>2021-08-13T08:27:54.235Z</time>
      </trkpt>
      <trkpt lat="50.52191" lon="1.58066">
        <ele>15</ele>
        <time>2021-08-13T08:27:58.232Z</time>
      </trkpt>
      <trkpt lat="50.52186" lon="1.58063">
        <ele>15</ele>
        <time>2021-08-13T08:28:03.232Z</time>
      </trkpt>
      <trkpt lat="50.52181" lon="1.5806">
        <ele>15</ele>
        <time>2021-08-13T08:28:08.234Z</time>
      </trkpt>
      <trkpt lat="50.52175" lon="1.5806">
        <ele>15</ele>
        <time>2021-08-13T08:28:13.246Z</time>
      </trkpt>
      <trkpt lat="50.52169" lon="1.58059">
        <ele>15</ele>
        <time>2021-08-13T08:28:18.235Z</time>
      </trkpt>
      <trkpt lat="50.52162" lon="1.58056">
        <ele>15</ele>
        <time>2021-08-13T08:28:23.230Z</time>
      </trkpt>
      <trkpt lat="50.52155" lon="1.58052">
        <ele>15</ele>
        <time>2021-08-13T08:28:28.240Z</time>
      </trkpt>
      <trkpt lat="50.5215" lon="1.58048">
        <ele>14</ele>
        <time>2021-08-13T08:28:33.236Z</time>
      </trkpt>
      <trkpt lat="50.52143" lon="1.58047">
        <ele>14</ele>
        <time>2021-08-13T08:28:38.240Z</time>
      </trkpt>
      <trkpt lat="50.52138" lon="1.58045">
        <ele>14</ele>
        <time>2021-08-13T08:28:42.241Z</time>
      </trkpt>
      <trkpt lat="50.52131" lon="1.58043">
        <ele>14</ele>
        <time>2021-08-13T08:28:47.236Z</time>
      </trkpt>
      <trkpt lat="50.52126" lon="1.5804">
        <ele>11</ele>
        <time>2021-08-13T08:28:51.352Z</time>
      </trkpt>
      <trkpt lat="50.5212" lon="1.58037">
        <ele>12</ele>
        <time>2021-08-13T08:28:56.229Z</time>
      </trkpt>
      <trkpt lat="50.52114" lon="1.58036">
        <ele>12</ele>
        <time>2021-08-13T08:29:00.236Z</time>
      </trkpt>
      <trkpt lat="50.52109" lon="1.58034">
        <ele>12</ele>
        <time>2021-08-13T08:29:04.236Z</time>
      </trkpt>
      <trkpt lat="50.52103" lon="1.58031">
        <ele>12</ele>
        <time>2021-08-13T08:29:09.253Z</time>
      </trkpt>
      <trkpt lat="50.52096" lon="1.58028">
        <ele>12</ele>
        <time>2021-08-13T08:29:14.254Z</time>
      </trkpt>
      <trkpt lat="50.52089" lon="1.58028">
        <ele>12</ele>
        <time>2021-08-13T08:29:19.244Z</time>
      </trkpt>
      <trkpt lat="50.52084" lon="1.58028">
        <ele>12</ele>
        <time>2021-08-13T08:29:23.260Z</time>
      </trkpt>
      <trkpt lat="50.52078" lon="1.58026">
        <ele>12</ele>
        <time>2021-08-13T08:29:28.241Z</time>
      </trkpt>
      <trkpt lat="50.52071" lon="1.58024">
        <ele>12</ele>
        <time>2021-08-13T08:29:33.235Z</time>
      </trkpt>
      <trkpt lat="50.52065" lon="1.58023">
        <ele>13</ele>
        <time>2021-08-13T08:29:38.234Z</time>
      </trkpt>
      <trkpt lat="50.5206" lon="1.58022">
        <ele>13</ele>
        <time>2021-08-13T08:29:42.242Z</time>
      </trkpt>
      <trkpt lat="50.52053" lon="1.58021">
        <ele>13</ele>
        <time>2021-08-13T08:29:47.233Z</time>
      </trkpt>
      <trkpt lat="50.52047" lon="1.58021">
        <ele>13</ele>
        <time>2021-08-13T08:29:52.244Z</time>
      </trkpt>
      <trkpt lat="50.5204" lon="1.5802">
        <ele>14</ele>
        <time>2021-08-13T08:29:57.232Z</time>
      </trkpt>
      <trkpt lat="50.52034" lon="1.58022">
        <ele>14</ele>
        <time>2021-08-13T08:30:02.229Z</time>
      </trkpt>
      <trkpt lat="50.52027" lon="1.58022">
        <ele>14</ele>
        <time>2021-08-13T08:30:07.245Z</time>
      </trkpt>
      <trkpt lat="50.52021" lon="1.58022">
        <ele>14</ele>
        <time>2021-08-13T08:30:12.240Z</time>
      </trkpt>
      <trkpt lat="50.52015" lon="1.58021">
        <ele>14</ele>
        <time>2021-08-13T08:30:17.232Z</time>
      </trkpt>
      <trkpt lat="50.5201" lon="1.58022">
        <ele>16</ele>
        <time>2021-08-13T08:30:21.231Z</time>
      </trkpt>
      <trkpt lat="50.52003" lon="1.5802">
        <ele>16</ele>
        <time>2021-08-13T08:30:26.243Z</time>
      </trkpt>
      <trkpt lat="50.51997" lon="1.58019">
        <ele>16</ele>
        <time>2021-08-13T08:30:31.228Z</time>
      </trkpt>
      <trkpt lat="50.51991" lon="1.58018">
        <ele>16</ele>
        <time>2021-08-13T08:30:36.229Z</time>
      </trkpt>
      <trkpt lat="50.51985" lon="1.58015">
        <ele>18</ele>
        <time>2021-08-13T08:30:41.240Z</time>
      </trkpt>
      <trkpt lat="50.51978" lon="1.58012">
        <ele>16</ele>
        <time>2021-08-13T08:30:46.228Z</time>
      </trkpt>
      <trkpt lat="50.51972" lon="1.5801">
        <ele>16</ele>
        <time>2021-08-13T08:30:51.233Z</time>
      </trkpt>
      <trkpt lat="50.51965" lon="1.58009">
        <ele>16</ele>
        <time>2021-08-13T08:30:56.235Z</time>
      </trkpt>
      <trkpt lat="50.51959" lon="1.58008">
        <ele>16</ele>
        <time>2021-08-13T08:31:01.226Z</time>
      </trkpt>
      <trkpt lat="50.51953" lon="1.58006">
        <ele>21</ele>
        <time>2021-08-13T08:31:06.241Z</time>
      </trkpt>
      <trkpt lat="50.51946" lon="1.58004">
        <ele>21</ele>
        <time>2021-08-13T08:31:11.237Z</time>
      </trkpt>
      <trkpt lat="50.51941" lon="1.58001">
        <ele>21</ele>
        <time>2021-08-13T08:31:15.250Z</time>
      </trkpt>
      <trkpt lat="50.51934" lon="1.57999">
        <ele>21</ele>
        <time>2021-08-13T08:31:20.231Z</time>
      </trkpt>
      <trkpt lat="50.51929" lon="1.57997">
        <ele>20</ele>
        <time>2021-08-13T08:31:24.244Z</time>
      </trkpt>
      <trkpt lat="50.51922" lon="1.57994">
        <ele>20</ele>
        <time>2021-08-13T08:31:29.236Z</time>
      </trkpt>
      <trkpt lat="50.51915" lon="1.57992">
        <ele>20</ele>
        <time>2021-08-13T08:31:34.242Z</time>
      </trkpt>
      <trkpt lat="50.5191" lon="1.57991">
        <ele>20</ele>
        <time>2021-08-13T08:31:38.260Z</time>
      </trkpt>
      <trkpt lat="50.51903" lon="1.57989">
        <ele>20</ele>
        <time>2021-08-13T08:31:43.242Z</time>
      </trkpt>
      <trkpt lat="50.51896" lon="1.57987">
        <ele>18</ele>
        <time>2021-08-13T08:31:48.223Z</time>
      </trkpt>
      <trkpt lat="50.5189" lon="1.57986">
        <ele>16</ele>
        <time>2021-08-13T08:31:53.242Z</time>
      </trkpt>
      <trkpt lat="50.51883" lon="1.57984">
        <ele>16</ele>
        <time>2021-08-13T08:31:58.237Z</time>
      </trkpt>
      <trkpt lat="50.51877" lon="1.57981">
        <ele>16</ele>
        <time>2021-08-13T08:32:03.237Z</time>
      </trkpt>
      <trkpt lat="50.5187" lon="1.57979">
        <ele>16</ele>
        <time>2021-08-13T08:32:08.237Z</time>
      </trkpt>
      <trkpt lat="50.51864" lon="1.57977">
        <ele>16</ele>
        <time>2021-08-13T08:32:13.239Z</time>
      </trkpt>
      <trkpt lat="50.51858" lon="1.57976">
        <ele>16</ele>
        <time>2021-08-13T08:32:17.240Z</time>
      </trkpt>
      <trkpt lat="50.51852" lon="1.57975">
        <ele>16</ele>
        <time>2021-08-13T08:32:22.236Z</time>
      </trkpt>
      <trkpt lat="50.51847" lon="1.57974">
        <ele>16</ele>
        <time>2021-08-13T08:32:26.242Z</time>
      </trkpt>
      <trkpt lat="50.5184" lon="1.57972">
        <ele>16</ele>
        <time>2021-08-13T08:32:31.240Z</time>
      </trkpt>
      <trkpt lat="50.51834" lon="1.57971">
        <ele>16</ele>
        <time>2021-08-13T08:32:36.234Z</time>
      </trkpt>
      <trkpt lat="50.51828" lon="1.5797">
        <ele>16</ele>
        <time>2021-08-13T08:32:41.230Z</time>
      </trkpt>
      <trkpt lat="50.51823" lon="1.57969">
        <ele>16</ele>
        <time>2021-08-13T08:32:45.234Z</time>
      </trkpt>
      <trkpt lat="50.51816" lon="1.57967">
        <ele>16</ele>
        <time>2021-08-13T08:32:50.232Z</time>
      </trkpt>
      <trkpt lat="50.51811" lon="1.57965">
        <ele>16</ele>
        <time>2021-08-13T08:32:54.238Z</time>
      </trkpt>
      <trkpt lat="50.51806" lon="1.57964">
        <ele>16</ele>
        <time>2021-08-13T08:32:58.230Z</time>
      </trkpt>
      <trkpt lat="50.518" lon="1.57963">
        <ele>16</ele>
        <time>2021-08-13T08:33:03.237Z</time>
      </trkpt>
      <trkpt lat="50.51795" lon="1.57962">
        <ele>16</ele>
        <time>2021-08-13T08:33:07.234Z</time>
      </trkpt>
      <trkpt lat="50.51788" lon="1.57961">
        <ele>15</ele>
        <time>2021-08-13T08:33:12.220Z</time>
      </trkpt>
      <trkpt lat="50.51782" lon="1.57959">
        <ele>15</ele>
        <time>2021-08-13T08:33:17.225Z</time>
      </trkpt>
      <trkpt lat="50.51775" lon="1.57957">
        <ele>11</ele>
        <time>2021-08-13T08:33:22.226Z</time>
      </trkpt>
      <trkpt lat="50.51769" lon="1.57956">
        <ele>11</ele>
        <time>2021-08-13T08:33:27.234Z</time>
      </trkpt>
      <trkpt lat="50.51762" lon="1.57955">
        <ele>12</ele>
        <time>2021-08-13T08:33:32.244Z</time>
      </trkpt>
      <trkpt lat="50.51755" lon="1.57955">
        <ele>12</ele>
        <time>2021-08-13T08:33:37.242Z</time>
      </trkpt>
      <trkpt lat="50.51748" lon="1.57953">
        <ele>12</ele>
        <time>2021-08-13T08:33:42.233Z</time>
      </trkpt>
      <trkpt lat="50.51744" lon="1.57952">
        <ele>12</ele>
        <time>2021-08-13T08:33:46.239Z</time>
      </trkpt>
      <trkpt lat="50.51737" lon="1.5795">
        <ele>12</ele>
        <time>2021-08-13T08:33:51.232Z</time>
      </trkpt>
      <trkpt lat="50.51731" lon="1.57949">
        <ele>13</ele>
        <time>2021-08-13T08:33:56.224Z</time>
      </trkpt>
      <trkpt lat="50.51724" lon="1.57946">
        <ele>13</ele>
        <time>2021-08-13T08:34:01.236Z</time>
      </trkpt>
      <trkpt lat="50.51716" lon="1.57945">
        <ele>13</ele>
        <time>2021-08-13T08:34:06.232Z</time>
      </trkpt>
      <trkpt lat="50.51711" lon="1.57944">
        <ele>13</ele>
        <time>2021-08-13T08:34:10.230Z</time>
      </trkpt>
      <trkpt lat="50.51705" lon="1.57942">
        <ele>13</ele>
        <time>2021-08-13T08:34:15.238Z</time>
      </trkpt>
      <trkpt lat="50.51698" lon="1.57939">
        <ele>13</ele>
        <time>2021-08-13T08:34:20.237Z</time>
      </trkpt>
      <trkpt lat="50.51694" lon="1.57938">
        <ele>13</ele>
        <time>2021-08-13T08:34:24.251Z</time>
      </trkpt>
      <trkpt lat="50.51687" lon="1.57937">
        <ele>13</ele>
        <time>2021-08-13T08:34:29.237Z</time>
      </trkpt>
      <trkpt lat="50.51681" lon="1.57936">
        <ele>13</ele>
        <time>2021-08-13T08:34:34.240Z</time>
      </trkpt>
      <trkpt lat="50.51675" lon="1.57936">
        <ele>14</ele>
        <time>2021-08-13T08:34:39.237Z</time>
      </trkpt>
      <trkpt lat="50.5167" lon="1.57935">
        <ele>14</ele>
        <time>2021-08-13T08:34:43.241Z</time>
      </trkpt>
      <trkpt lat="50.51664" lon="1.57931">
        <ele>14</ele>
        <time>2021-08-13T08:34:48.250Z</time>
      </trkpt>
      <trkpt lat="50.51657" lon="1.57929">
        <ele>11</ele>
        <time>2021-08-13T08:34:53.236Z</time>
      </trkpt>
      <trkpt lat="50.5165" lon="1.57929">
        <ele>13</ele>
        <time>2021-08-13T08:34:58.232Z</time>
      </trkpt>
      <trkpt lat="50.51644" lon="1.57929">
        <ele>13</ele>
        <time>2021-08-13T08:35:03.233Z</time>
      </trkpt>
      <trkpt lat="50.51638" lon="1.57927">
        <ele>13</ele>
        <time>2021-08-13T08:35:08.233Z</time>
      </trkpt>
      <trkpt lat="50.51634" lon="1.57922">
        <ele>13</ele>
        <time>2021-08-13T08:35:12.246Z</time>
      </trkpt>
      <trkpt lat="50.51629" lon="1.57914">
        <ele>13</ele>
        <time>2021-08-13T08:35:17.232Z</time>
      </trkpt>
      <trkpt lat="50.51627" lon="1.57906">
        <ele>13</ele>
        <time>2021-08-13T08:35:21.243Z</time>
      </trkpt>
      <trkpt lat="50.51624" lon="1.57901">
        <ele>12</ele>
        <time>2021-08-13T08:35:25.258Z</time>
      </trkpt>
      <trkpt lat="50.51623" lon="1.57891">
        <ele>12</ele>
        <time>2021-08-13T08:35:30.228Z</time>
      </trkpt>
      <trkpt lat="50.51617" lon="1.57887">
        <ele>12</ele>
        <time>2021-08-13T08:35:34.230Z</time>
      </trkpt>
      <trkpt lat="50.5161" lon="1.57885">
        <ele>12</ele>
        <time>2021-08-13T08:35:39.238Z</time>
      </trkpt>
      <trkpt lat="50.51603" lon="1.57883">
        <ele>12</ele>
        <time>2021-08-13T08:35:44.229Z</time>
      </trkpt>
      <trkpt lat="50.51597" lon="1.57882">
        <ele>12</ele>
        <time>2021-08-13T08:35:48.230Z</time>
      </trkpt>
      <trkpt lat="50.51591" lon="1.57881">
        <ele>16</ele>
        <time>2021-08-13T08:35:53.231Z</time>
      </trkpt>
      <trkpt lat="50.51584" lon="1.5788">
        <ele>16</ele>
        <time>2021-08-13T08:35:58.235Z</time>
      </trkpt>
      <trkpt lat="50.5158" lon="1.57876">
        <ele>16</ele>
        <time>2021-08-13T08:36:02.249Z</time>
      </trkpt>
      <trkpt lat="50.51574" lon="1.57874">
        <ele>13</ele>
        <time>2021-08-13T08:36:07.239Z</time>
      </trkpt>
      <trkpt lat="50.51566" lon="1.57875">
        <ele>19</ele>
        <time>2021-08-13T08:36:12.239Z</time>
      </trkpt>
      <trkpt lat="50.51559" lon="1.57876">
        <ele>19</ele>
        <time>2021-08-13T08:36:17.250Z</time>
      </trkpt>
      <trkpt lat="50.51552" lon="1.57875">
        <ele>14</ele>
        <time>2021-08-13T08:36:22.238Z</time>
      </trkpt>
      <trkpt lat="50.51547" lon="1.57874">
        <ele>14</ele>
        <time>2021-08-13T08:36:26.243Z</time>
      </trkpt>
      <trkpt lat="50.51539" lon="1.57873">
        <ele>15</ele>
        <time>2021-08-13T08:36:31.240Z</time>
      </trkpt>
      <trkpt lat="50.51533" lon="1.57871">
        <ele>15</ele>
        <time>2021-08-13T08:36:36.234Z</time>
      </trkpt>
      <trkpt lat="50.51528" lon="1.5787">
        <ele>15</ele>
        <time>2021-08-13T08:36:40.233Z</time>
      </trkpt>
      <trkpt lat="50.51521" lon="1.57868">
        <ele>15</ele>
        <time>2021-08-13T08:36:45.237Z</time>
      </trkpt>
      <trkpt lat="50.51514" lon="1.57868">
        <ele>15</ele>
        <time>2021-08-13T08:36:50.231Z</time>
      </trkpt>
      <trkpt lat="50.51508" lon="1.57867">
        <ele>15</ele>
        <time>2021-08-13T08:36:54.234Z</time>
      </trkpt>
      <trkpt lat="50.51503" lon="1.57867">
        <ele>15</ele>
        <time>2021-08-13T08:36:58.226Z</time>
      </trkpt>
      <trkpt lat="50.51496" lon="1.5787">
        <ele>15</ele>
        <time>2021-08-13T08:37:03.224Z</time>
      </trkpt>
      <trkpt lat="50.5149" lon="1.57873">
        <ele>15</ele>
        <time>2021-08-13T08:37:08.234Z</time>
      </trkpt>
      <trkpt lat="50.51483" lon="1.57871">
        <ele>16</ele>
        <time>2021-08-13T08:37:13.239Z</time>
      </trkpt>
      <trkpt lat="50.51479" lon="1.5787">
        <ele>16</ele>
        <time>2021-08-13T08:37:17.240Z</time>
      </trkpt>
      <trkpt lat="50.51474" lon="1.57868">
        <ele>16</ele>
        <time>2021-08-13T08:37:22.223Z</time>
      </trkpt>
      <trkpt lat="50.51469" lon="1.57866">
        <ele>16</ele>
        <time>2021-08-13T08:37:26.225Z</time>
      </trkpt>
      <trkpt lat="50.51464" lon="1.57864">
        <ele>16</ele>
        <time>2021-08-13T08:37:30.236Z</time>
      </trkpt>
      <trkpt lat="50.51457" lon="1.57863">
        <ele>17</ele>
        <time>2021-08-13T08:37:35.235Z</time>
      </trkpt>
      <trkpt lat="50.51451" lon="1.57862">
        <ele>17</ele>
        <time>2021-08-13T08:37:39.224Z</time>
      </trkpt>
      <trkpt lat="50.51445" lon="1.57861">
        <ele>17</ele>
        <time>2021-08-13T08:37:44.228Z</time>
      </trkpt>
      <trkpt lat="50.51438" lon="1.57862">
        <ele>17</ele>
        <time>2021-08-13T08:37:49.235Z</time>
      </trkpt>
      <trkpt lat="50.51434" lon="1.57859">
        <ele>17</ele>
        <time>2021-08-13T08:37:53.234Z</time>
      </trkpt>
      <trkpt lat="50.51429" lon="1.57857">
        <ele>17</ele>
        <time>2021-08-13T08:37:57.237Z</time>
      </trkpt>
      <trkpt lat="50.51423" lon="1.57858">
        <ele>17</ele>
        <time>2021-08-13T08:38:02.233Z</time>
      </trkpt>
      <trkpt lat="50.51417" lon="1.5786">
        <ele>17</ele>
        <time>2021-08-13T08:38:06.234Z</time>
      </trkpt>
      <trkpt lat="50.51411" lon="1.5786">
        <ele>17</ele>
        <time>2021-08-13T08:38:11.239Z</time>
      </trkpt>
      <trkpt lat="50.51404" lon="1.57859">
        <ele>17</ele>
        <time>2021-08-13T08:38:16.237Z</time>
      </trkpt>
      <trkpt lat="50.51398" lon="1.57859">
        <ele>17</ele>
        <time>2021-08-13T08:38:21.362Z</time>
      </trkpt>
      <trkpt lat="50.51392" lon="1.57858">
        <ele>17</ele>
        <time>2021-08-13T08:38:26.243Z</time>
      </trkpt>
      <trkpt lat="50.51386" lon="1.57856">
        <ele>17</ele>
        <time>2021-08-13T08:38:31.228Z</time>
      </trkpt>
      <trkpt lat="50.51385" lon="1.5785">
        <ele>17</ele>
        <time>2021-08-13T08:38:36.233Z</time>
      </trkpt>
      <trkpt lat="50.51386" lon="1.57849">
        <ele>17</ele>
        <time>2021-08-13T08:38:41.246Z</time>
      </trkpt>
      <trkpt lat="50.51387" lon="1.57849">
        <ele>17</ele>
        <time>2021-08-13T08:38:46.244Z</time>
      </trkpt>
      <trkpt lat="50.51386" lon="1.5785">
        <ele>17</ele>
        <time>2021-08-13T08:38:51.232Z</time>
      </trkpt>
      <trkpt lat="50.51394" lon="1.57847">
        <ele>17</ele>
        <time>2021-08-13T08:38:56.229Z</time>
      </trkpt>
      <trkpt lat="50.51395" lon="1.57842">
        <ele>15</ele>
        <time>2021-08-13T08:39:00.236Z</time>
      </trkpt>
      <trkpt lat="50.51397" lon="1.57835">
        <ele>15</ele>
        <time>2021-08-13T08:39:05.235Z</time>
      </trkpt>
      <trkpt lat="50.51402" lon="1.57835">
        <ele>15</ele>
        <time>2021-08-13T08:39:10.234Z</time>
      </trkpt>
      <trkpt lat="50.51406" lon="1.57831">
        <ele>15</ele>
        <time>2021-08-13T08:39:15.234Z</time>
      </trkpt>
      <trkpt lat="50.51409" lon="1.57825">
        <ele>15</ele>
        <time>2021-08-13T08:39:20.235Z</time>
      </trkpt>
      <trkpt lat="50.51411" lon="1.57818">
        <ele>13</ele>
        <time>2021-08-13T08:39:25.247Z</time>
      </trkpt>
      <trkpt lat="50.51415" lon="1.57811">
        <ele>13</ele>
        <time>2021-08-13T08:39:30.238Z</time>
      </trkpt>
      <trkpt lat="50.51414" lon="1.57801">
        <ele>13</ele>
        <time>2021-08-13T08:39:35.236Z</time>
      </trkpt>
      <trkpt lat="50.51413" lon="1.57794">
        <ele>13</ele>
        <time>2021-08-13T08:39:39.235Z</time>
      </trkpt>
      <trkpt lat="50.51403" lon="1.57781">
        <ele>15</ele>
        <time>2021-08-13T08:39:58.224Z</time>
      </trkpt>
      <trkpt lat="50.51398" lon="1.57786">
        <ele>14</ele>
        <time>2021-08-13T08:40:03.228Z</time>
      </trkpt>
      <trkpt lat="50.51393" lon="1.57789">
        <ele>14</ele>
        <time>2021-08-13T08:40:07.230Z</time>
      </trkpt>
      <trkpt lat="50.51387" lon="1.5779">
        <ele>14</ele>
        <time>2021-08-13T08:40:12.228Z</time>
      </trkpt>
      <trkpt lat="50.51381" lon="1.5779">
        <ele>14</ele>
        <time>2021-08-13T08:40:17.229Z</time>
      </trkpt>
      <trkpt lat="50.51376" lon="1.57784">
        <ele>14</ele>
        <time>2021-08-13T08:40:22.223Z</time>
      </trkpt>
      <trkpt lat="50.5137" lon="1.5778">
        <ele>12</ele>
        <time>2021-08-13T08:40:27.225Z</time>
      </trkpt>
      <trkpt lat="50.51365" lon="1.57776">
        <ele>12</ele>
        <time>2021-08-13T08:40:32.218Z</time>
      </trkpt>
      <trkpt lat="50.5136" lon="1.5777">
        <ele>12</ele>
        <time>2021-08-13T08:40:37.215Z</time>
      </trkpt>
    </trkseg>
  </trk>
</gpx>